Time;durP1;ratioP1;P1;durP2;ratioP2;P2;SDS_P1;SDS_P2;PMS_P1;PMS_P2;Temp;Humidity;BMP_temperature;BMP_pressure;BME280_temperature;BME280_humidity;BME280_pressure;Samples;Min_cycle;Max_cycle;Signal;HPM_P1;HPM_P2
2024/03/17 00:01:42;;;;;;;15.27;7.27;;;6.90;90.90;;;;;;5035414;28;20075;-78
2024/03/17 00:04:08;;;;;;;13.43;7.23;;;6.80;91.00;;;;;;5035605;28;20025;-77
2024/03/17 00:06:34;;;;;;;14.20;7.57;;;6.90;91.00;;;;;;5035264;28;20018;-78
2024/03/17 00:09:06;;;;;;;15.87;7.77;;;6.90;91.10;;;;;;5050728;28;20384;-78
2024/03/17 00:11:35;;;;;;;12.87;7.30;;;6.90;91.20;;;;;;5035157;28;20022;-77
2024/03/17 00:14:01;;;;;;;14.40;7.80;;;6.90;91.20;;;;;;5035399;28;20018;-76
2024/03/17 00:16:27;;;;;;;13.00;6.70;;;6.90;91.30;;;;;;5050537;28;20029;-77
2024/03/17 00:18:53;;;;;;;21.13;7.63;;;6.90;91.30;;;;;;5035134;28;20025;-76
2024/03/17 00:21:19;;;;;;;14.77;7.77;;;6.90;91.30;;;;;;5050015;28;20021;-78
2024/03/17 00:23:49;;;;;;;18.53;7.70;;;6.90;91.30;;;;;;5035348;28;20021;-78
2024/03/17 00:26:15;;;;;;;13.87;7.87;;;6.90;91.40;;;;;;5022488;28;20478;-78
2024/03/17 00:28:41;;;;;;;14.57;7.17;;;6.90;91.50;;;;;;5014713;28;20028;-78
2024/03/17 00:31:09;;;;;;;13.43;7.57;;;6.90;91.50;;;;;;5013204;28;20045;-77
2024/03/17 00:33:35;;;;;;;16.20;6.87;;;6.90;91.50;;;;;;5015200;28;20030;-77
2024/03/17 00:36:01;;;;;;;13.53;7.27;;;6.80;91.60;;;;;;5015041;28;20081;-77
2024/03/17 00:38:27;;;;;;;12.80;6.77;;;6.90;91.70;;;;;;5015541;28;20089;-77
2024/03/17 00:40:53;;;;;;;12.60;6.37;;;6.80;91.70;;;;;;5013196;28;20048;-77
2024/03/17 00:43:18;;;;;;;16.27;6.60;;;6.70;91.80;;;;;;5008504;28;20505;-77
2024/03/17 00:45:50;;;;;;;12.97;6.33;;;6.80;91.90;;;;;;4998067;28;20029;-78
2024/03/17 00:48:16;;;;;;;18.63;7.20;;;6.80;91.90;;;;;;4995238;28;20021;-77
2024/03/17 00:50:44;;;;;;;13.67;6.60;;;6.70;92.00;;;;;;4994879;28;20386;-78
2024/03/17 00:53:10;;;;;;;13.90;6.83;;;6.80;92.00;;;;;;4995136;28;20057;-78
2024/03/17 00:55:36;;;;;;;14.47;6.80;;;6.80;92.10;;;;;;4993877;28;20053;-77
2024/03/17 00:58:03;;;;;;;15.03;6.70;;;6.80;92.10;;;;;;4993696;28;20473;-77
2024/03/17 01:00:28;;;;;;;12.20;6.00;;;6.80;92.20;;;;;;4993893;28;20029;-78
2024/03/17 01:02:54;;;;;;;14.33;6.37;;;6.80;92.30;;;;;;4994962;28;20018;-78
2024/03/17 01:05:20;;;;;;;12.47;5.53;;;6.80;92.40;;;;;;4994751;28;20474;-78
2024/03/17 01:07:47;;;;;;;15.33;6.20;;;6.80;92.40;;;;;;4994895;28;20026;-77
2024/03/17 01:10:13;;;;;;;11.10;5.83;;;6.80;92.50;;;;;;4993249;28;20105;-77
2024/03/17 01:12:39;;;;;;;10.37;5.67;;;6.80;92.50;;;;;;4994846;28;20482;-78
2024/03/17 01:15:05;;;;;;;13.17;5.33;;;6.90;92.50;;;;;;4994644;28;20384;-77
2024/03/17 01:17:31;;;;;;;13.40;6.47;;;6.80;92.60;;;;;;5009879;28;20065;-77
2024/03/17 01:19:57;;;;;;;9.93;5.13;;;6.80;92.60;;;;;;4994649;28;20022;-77
2024/03/17 01:22:23;;;;;;;13.80;5.60;;;6.80;92.60;;;;;;4993263;28;20485;-77
2024/03/17 01:24:48;;;;;;;11.03;5.50;;;6.80;92.60;;;;;;4994753;28;20022;-78
2024/03/17 01:27:16;;;;;;;11.73;5.37;;;6.80;92.60;;;;;;4995217;28;20054;-77
2024/03/17 01:29:43;;;;;;;10.33;5.77;;;6.80;92.70;;;;;;5009449;28;20022;-77
2024/03/17 01:32:09;;;;;;;9.67;5.63;;;6.80;92.80;;;;;;4994373;28;20023;-77
2024/03/17 01:34:34;;;;;;;12.80;5.67;;;6.80;92.80;;;;;;4994315;28;20061;-77
2024/03/17 01:37:00;;;;;;;14.10;6.27;;;6.70;92.80;;;;;;4994596;28;20109;-77
2024/03/17 01:39:26;;;;;;;13.40;5.50;;;6.80;93.00;;;;;;4994316;28;20506;-77
2024/03/17 01:41:52;;;;;;;13.07;5.33;;;6.70;93.00;;;;;;4994031;28;20203;-78
2024/03/17 01:44:27;;;;;;;13.07;6.23;;;6.80;93.00;;;;;;4992850;28;20489;-77
2024/03/17 01:46:53;;;;;;;11.23;5.53;;;6.60;93.00;;;;;;4994045;28;20022;-77
2024/03/17 01:49:20;;;;;;;11.63;5.77;;;6.70;93.10;;;;;;5009225;28;20015;-77
2024/03/17 01:51:46;;;;;;;10.97;5.60;;;6.70;93.10;;;;;;4993998;28;20505;-77
2024/03/17 01:54:13;;;;;;;13.47;6.30;;;6.70;93.20;;;;;;4993933;28;20022;-77
2024/03/17 01:56:39;;;;;;;11.47;5.17;;;6.60;93.20;;;;;;4994272;28;20019;-77
2024/03/17 01:59:07;;;;;;;13.57;5.37;;;6.60;93.30;;;;;;4993930;28;20030;-77
2024/03/17 02:01:33;;;;;;;11.20;5.80;;;6.70;93.50;;;;;;4993660;28;20023;-77
2024/03/17 02:03:59;;;;;;;11.57;6.00;;;6.60;93.50;;;;;;5008877;28;20381;-77
2024/03/17 02:06:25;;;;;;;10.37;5.47;;;6.60;93.60;;;;;;5009071;28;20018;-77
2024/03/17 02:08:52;;;;;;;11.83;5.67;;;6.60;93.60;;;;;;4994154;28;20026;-77
2024/03/17 02:11:33;;;;;;;9.77;5.23;;;6.60;93.70;;;;;;4993513;28;20026;-77
2024/03/17 02:13:59;;;;;;;11.80;6.10;;;6.60;93.70;;;;;;4993794;28;20030;-77
2024/03/17 02:16:25;;;;;;;10.80;5.37;;;6.60;93.80;;;;;;4993981;28;20019;-77
2024/03/17 02:18:55;;;;;;;9.97;5.70;;;6.60;94.10;;;;;;4992350;28;20049;-77
2024/03/17 02:21:25;;;;;;;11.63;5.50;;;6.60;93.80;;;;;;5008177;28;20019;-77
2024/03/17 02:23:51;;;;;;;12.33;5.97;;;6.60;93.90;;;;;;4993599;28;20018;-78
2024/03/17 02:26:18;;;;;;;11.20;5.20;;;6.60;93.90;;;;;;4993526;28;20033;-77
2024/03/17 02:28:45;;;;;;;11.43;5.30;;;6.60;94.00;;;;;;4993850;28;20477;-77
2024/03/17 02:31:12;;;;;;;10.13;5.60;;;6.50;94.00;;;;;;4993362;28;20026;-77
2024/03/17 02:33:40;;;;;;;10.97;5.77;;;6.50;94.00;;;;;;4993598;28;20496;-77
2024/03/17 02:36:10;;;;;;;9.33;5.03;;;6.50;94.00;;;;;;4993454;28;20386;-78
2024/03/17 02:41:21;;;;;;;13.17;5.70;;;6.50;94.20;;;;;;4993598;28;20034;-77
2024/03/17 02:43:47;;;;;;;10.87;5.70;;;6.60;94.60;;;;;;4993403;28;20022;-77
2024/03/17 02:46:18;;;;;;;10.27;5.33;;;6.50;94.40;;;;;;5008342;28;20031;-77
2024/03/17 02:48:46;;;;;;;11.93;6.20;;;6.50;94.50;;;;;;5002172;28;20018;-77
2024/03/17 02:51:17;;;;;;;11.33;5.23;;;6.60;94.60;;;;;;4993619;28;20033;-77
2024/03/17 02:53:44;;;;;;;15.23;6.20;;;6.60;94.70;;;;;;4996741;28;20038;-77
2024/03/17 02:56:10;;;;;;;13.30;5.93;;;6.60;94.90;;;;;;5001941;28;20517;-78
2024/03/17 02:58:37;;;;;;;14.50;6.20;;;6.70;94.90;;;;;;4993114;28;20074;-77
2024/03/17 03:01:04;;;;;;;13.57;6.40;;;6.70;94.90;;;;;;4992936;28;20037;-77
2024/03/17 03:03:30;;;;;;;11.80;5.90;;;6.70;95.00;;;;;;5003603;28;20026;-77
2024/03/17 03:05:56;;;;;;;12.40;6.30;;;6.70;95.00;;;;;;4995210;28;20022;-77
2024/03/17 03:08:23;;;;;;;13.57;6.20;;;6.80;95.10;;;;;;5000523;28;20033;-78
2024/03/17 03:10:49;;;;;;;11.07;6.30;;;6.80;95.10;;;;;;4993096;28;20036;-77
2024/03/17 03:13:14;;;;;;;10.07;5.47;;;6.80;95.20;;;;;;4993242;28;20105;-77
2024/03/17 03:15:40;;;;;;;13.13;5.80;;;6.80;95.30;;;;;;4993490;28;20026;-77
2024/03/17 03:18:06;;;;;;;11.27;6.03;;;6.90;95.30;;;;;;4992792;28;20113;-77
2024/03/17 03:20:31;;;;;;;12.33;5.30;;;6.90;95.30;;;;;;4993098;28;20450;-78
2024/03/17 03:22:57;;;;;;;9.30;5.23;;;7.00;95.40;;;;;;4992710;28;20054;-77
2024/03/17 03:25:23;;;;;;;11.10;5.67;;;7.00;95.40;;;;;;4997017;28;20425;-78
2024/03/17 03:27:48;;;;;;;10.10;5.97;;;7.10;95.40;;;;;;4999635;28;20032;-77
2024/03/17 03:30:15;;;;;;;13.97;5.87;;;7.00;95.60;;;;;;4992761;28;20105;-77
2024/03/17 03:32:42;;;;;;;10.57;5.30;;;7.10;95.40;;;;;;4993088;28;20027;-78
2024/03/17 03:35:08;;;;;;;8.13;5.10;;;7.10;95.30;;;;;;4996644;28;20026;-77
2024/03/17 03:37:33;;;;;;;12.73;5.77;;;7.20;95.30;;;;;;4996136;28;20030;-77
2024/03/17 03:39:59;;;;;;;11.23;5.63;;;7.20;95.30;;;;;;4996627;28;20049;-77
2024/03/17 03:42:24;;;;;;;9.80;5.40;;;7.20;95.30;;;;;;4996442;28;20018;-77
2024/03/17 03:44:50;;;;;;;10.87;5.53;;;7.20;95.30;;;;;;4996157;28;20033;-78
2024/03/17 03:47:16;;;;;;;14.13;5.80;;;7.30;95.30;;;;;;4996116;28;20110;-77
2024/03/17 03:49:43;;;;;;;11.03;5.60;;;7.20;95.30;;;;;;5016881;28;20589;-78
2024/03/17 03:52:09;;;;;;;10.63;5.53;;;7.30;95.30;;;;;;5001166;28;20019;-78
2024/03/17 03:54:35;;;;;;;9.47;5.50;;;7.30;95.30;;;;;;4996216;28;20022;-77
2024/03/17 03:57:02;;;;;;;11.77;5.20;;;7.30;95.30;;;;;;4998117;28;20030;-77
2024/03/17 03:59:29;;;;;;;11.33;5.60;;;7.30;95.30;;;;;;5004493;28;20018;-77
2024/03/17 04:01:54;;;;;;;15.70;5.37;;;7.30;95.30;;;;;;4994694;28;20453;-78
2024/03/17 04:04:20;;;;;;;10.37;5.93;;;7.40;95.30;;;;;;5011077;28;20053;-78
2024/03/17 04:06:46;;;;;;;9.17;5.40;;;7.40;95.20;;;;;;5011184;28;20126;-78
2024/03/17 04:09:12;;;;;;;10.47;6.13;;;7.40;95.20;;;;;;4995731;28;20030;-78
2024/03/17 04:11:38;;;;;;;12.17;5.73;;;7.40;95.20;;;;;;4995536;28;20201;-78
2024/03/17 04:14:04;;;;;;;11.60;5.73;;;7.40;95.20;;;;;;4994083;28;20485;-78
2024/03/17 04:16:31;;;;;;;15.63;6.43;;;7.40;95.20;;;;;;5010786;28;20092;-78
2024/03/17 04:18:57;;;;;;;9.97;5.37;;;7.40;95.20;;;;;;4996046;28;20084;-78
2024/03/17 04:21:23;;;;;;;11.77;6.20;;;7.40;95.20;;;;;;4995278;28;20510;-78
2024/03/17 04:23:49;;;;;;;11.63;6.57;;;7.40;95.20;;;;;;4995513;28;20022;-77
2024/03/17 04:26:14;;;;;;;9.70;6.10;;;7.40;95.10;;;;;;4995246;28;20092;-77
2024/03/17 04:28:40;;;;;;;11.03;6.10;;;7.50;95.10;;;;;;4995468;28;20023;-78
2024/03/17 04:31:06;;;;;;;13.77;7.10;;;7.50;95.20;;;;;;5010409;28;20022;-78
2024/03/17 04:33:36;;;;;;;11.53;7.30;;;7.50;95.20;;;;;;5010723;28;20108;-78
2024/03/17 04:36:04;;;;;;;14.10;6.80;;;7.50;95.20;;;;;;4995507;28;20382;-78
2024/03/17 04:38:30;;;;;;;11.77;6.87;;;7.40;95.10;;;;;;4995571;28;20096;-77
2024/03/17 04:41:04;;;;;;;12.97;6.40;;;7.40;95.10;;;;;;4995581;28;20022;-78
2024/03/17 04:43:32;;;;;;;10.37;6.30;;;7.40;95.20;;;;;;5010483;28;20022;-78
2024/03/17 04:46:03;;;;;;;13.70;6.53;;;7.40;95.20;;;;;;5009538;28;20101;-78
2024/03/17 04:48:30;;;;;;;11.03;6.90;;;7.50;95.20;;;;;;4995052;28;20033;-77
2024/03/17 04:50:55;;;;;;;15.37;7.50;;;7.40;95.20;;;;;;5010094;28;20445;-78
2024/03/17 04:53:21;;;;;;;12.60;7.30;;;7.40;95.20;;;;;;4994991;28;20030;-78
2024/03/17 04:55:46;;;;;;;13.27;7.30;;;7.40;95.30;;;;;;5010221;28;20022;-77
2024/03/17 04:58:12;;;;;;;12.93;7.63;;;7.40;95.30;;;;;;4994903;28;20030;-78
2024/03/17 05:00:38;;;;;;;12.60;7.93;;;7.40;95.30;;;;;;4995125;28;20019;-77
2024/03/17 05:03:04;;;;;;;12.37;7.43;;;7.30;95.30;;;;;;5009791;28;20421;-78
2024/03/17 05:05:29;;;;;;;15.53;8.07;;;7.30;95.30;;;;;;4995098;28;20486;-78
2024/03/17 05:07:55;;;;;;;14.13;8.57;;;7.30;95.40;;;;;;5010029;28;20080;-78
2024/03/17 05:10:20;;;;;;;18.50;8.63;;;7.30;95.40;;;;;;5010261;28;20026;-78
2024/03/17 05:12:47;;;;;;;13.50;8.47;;;7.30;95.50;;;;;;4994468;28;20501;-78
2024/03/17 05:15:13;;;;;;;13.37;8.10;;;7.30;95.50;;;;;;4994509;28;20014;-78
2024/03/17 05:17:39;;;;;;;15.97;8.80;;;7.30;95.60;;;;;;4994851;28;20030;-78
2024/03/17 05:20:06;;;;;;;16.07;9.00;;;7.40;95.60;;;;;;4994734;28;20027;-78
2024/03/17 05:22:31;;;;;;;13.50;8.70;;;7.40;95.60;;;;;;4994540;28;20101;-78
2024/03/17 05:24:57;;;;;;;15.23;8.57;;;7.40;95.60;;;;;;4994260;28;20474;-78
2024/03/17 05:27:22;;;;;;;14.87;9.20;;;7.40;95.60;;;;;;4994146;28;20023;-78
2024/03/17 05:29:50;;;;;;;14.40;9.10;;;7.40;95.70;;;;;;5009320;28;20116;-77
2024/03/17 05:32:16;;;;;;;15.03;9.37;;;7.50;95.70;;;;;;4994050;28;20048;-78
2024/03/17 05:34:42;;;;;;;14.73;8.73;;;7.40;95.70;;;;;;4994156;28;20046;-78
2024/03/17 05:37:08;;;;;;;14.70;9.13;;;7.40;95.80;;;;;;4992856;28;20034;-78
2024/03/17 05:39:34;;;;;;;13.53;8.83;;;7.40;95.80;;;;;;4994455;28;20027;-78
2024/03/17 05:42:03;;;;;;;12.37;8.40;;;7.30;95.90;;;;;;4994262;28;20440;-78
2024/03/17 05:44:29;;;;;;;15.43;8.97;;;7.40;96.00;;;;;;4994119;28;20025;-78
2024/03/17 05:46:57;;;;;;;14.07;9.10;;;7.40;96.00;;;;;;4994116;28;20019;-78
2024/03/17 05:49:23;;;;;;;13.83;8.60;;;7.40;96.10;;;;;;4993931;28;20439;-77
2024/03/17 05:51:49;;;;;;;16.03;9.47;;;7.40;96.10;;;;;;4994014;28;20042;-78
2024/03/17 05:54:14;;;;;;;13.87;9.17;;;7.40;96.20;;;;;;4994084;28;20018;-78
2024/03/17 05:56:40;;;;;;;13.43;9.37;;;7.40;96.30;;;;;;5009090;28;20053;-78
2024/03/17 05:59:05;;;;;;;15.80;9.20;;;7.40;96.30;;;;;;4993776;28;20026;-77
2024/03/17 06:01:31;;;;;;;14.23;8.90;;;7.40;96.40;;;;;;4993664;28;20023;-78
2024/03/17 06:03:57;;;;;;;13.77;8.80;;;7.40;96.50;;;;;;4993838;28;20025;-78
2024/03/17 06:06:23;;;;;;;14.17;8.50;;;7.40;96.50;;;;;;5008891;28;20109;-78
2024/03/17 06:08:49;;;;;;;17.10;9.00;;;7.40;96.50;;;;;;5008741;28;20034;-78
2024/03/17 06:11:15;;;;;;;18.60;9.23;;;7.50;96.70;;;;;;4993680;28;20069;-77
2024/03/17 06:13:40;;;;;;;16.37;8.77;;;7.50;96.70;;;;;;4993614;28;20057;-78
2024/03/17 06:16:06;;;;;;;14.77;9.10;;;7.50;96.80;;;;;;5008757;28;20021;-78
2024/03/17 06:18:32;;;;;;;15.97;8.97;;;7.50;96.80;;;;;;4993385;28;20027;-77
2024/03/17 06:21:00;;;;;;;13.60;8.97;;;7.50;96.90;;;;;;4993506;28;20025;-78
2024/03/17 06:23:27;;;;;;;15.57;9.23;;;7.60;97.00;;;;;;4991958;28;20532;-78
2024/03/17 06:25:54;;;;;;;14.80;8.90;;;7.60;97.00;;;;;;4992302;28;20026;-78
2024/03/17 06:28:19;;;;;;;15.93;9.43;;;7.60;97.00;;;;;;4994756;28;20343;-78
2024/03/17 06:30:53;;;;;;;14.77;9.50;;;7.70;97.10;;;;;;4993913;28;20033;-78
2024/03/17 06:33:19;;;;;;;14.45;8.65;;;7.70;97.10;;;;;;5012710;28;20568;-78
2024/03/17 06:35:47;;;;;;;17.53;9.57;;;7.70;97.10;;;;;;5012843;28;20105;-78
2024/03/17 06:38:13;;;;;;;14.77;8.90;;;7.80;97.20;;;;;;5012612;28;20026;-78
2024/03/17 06:40:39;;;;;;;18.97;9.30;;;7.80;97.20;;;;;;5012107;28;20034;-78
2024/03/17 06:43:05;;;;;;;12.03;8.67;;;7.90;97.20;;;;;;5010478;28;20036;-77
2024/03/17 06:45:32;;;;;;;12.63;8.77;;;7.90;97.30;;;;;;5011525;28;20058;-78
2024/03/17 06:47:57;;;;;;;14.40;9.17;;;8.00;97.30;;;;;;5012086;28;20026;-78
2024/03/17 06:50:24;;;;;;;13.57;8.50;;;8.00;97.30;;;;;;5013258;28;20026;-78
2024/03/17 06:52:49;;;;;;;15.47;9.57;;;8.10;97.30;;;;;;5011610;28;20025;-78
2024/03/17 06:55:15;;;;;;;15.47;8.17;;;8.10;97.30;;;;;;5013060;28;20029;-78
2024/03/17 06:57:43;;;;;;;15.77;9.90;;;8.10;97.30;;;;;;5012705;28;20026;-77
2024/03/17 07:00:17;;;;;;;14.13;8.80;;;8.20;97.30;;;;;;5013273;28;20048;-78
2024/03/17 07:02:43;;;;;;;17.30;9.43;;;8.20;97.30;;;;;;5011756;28;20064;-78
2024/03/17 07:05:15;;;;;;;16.67;9.33;;;8.30;97.30;;;;;;5011370;28;20458;-78
2024/03/17 07:07:42;;;;;;;14.03;8.93;;;8.30;97.20;;;;;;5011864;28;20030;-78
2024/03/17 07:10:08;;;;;;;15.07;8.80;;;8.30;97.20;;;;;;5016880;28;20029;-78
2024/03/17 07:12:34;;;;;;;16.07;9.20;;;8.30;97.10;;;;;;5014931;28;20026;-78
2024/03/17 07:15:00;;;;;;;14.13;8.40;;;8.40;97.10;;;;;;5031727;28;20028;-78
2024/03/17 07:17:26;;;;;;;14.50;8.83;;;8.40;97.10;;;;;;5016417;28;20029;-78
2024/03/17 07:19:52;;;;;;;16.37;8.77;;;8.40;97.10;;;;;;5016563;28;20378;-78
2024/03/17 07:22:17;;;;;;;14.90;8.00;;;8.40;97.10;;;;;;5031556;28;20046;-78
2024/03/17 07:24:44;;;;;;;16.33;7.83;;;8.50;97.10;;;;;;5016397;28;20029;-78
2024/03/17 07:27:13;;;;;;;13.67;8.60;;;8.60;97.10;;;;;;5014722;28;20064;-78
2024/03/17 07:29:39;;;;;;;12.83;7.73;;;8.60;97.00;;;;;;5031344;28;20049;-78
2024/03/17 07:32:05;;;;;;;12.80;8.30;;;8.60;97.00;;;;;;5030891;28;20381;-77
2024/03/17 07:34:32;;;;;;;13.80;8.13;;;8.70;97.10;;;;;;5016330;28;20028;-78
2024/03/17 07:37:00;;;;;;;15.13;8.13;;;8.70;97.10;;;;;;5015825;28;20018;-78
2024/03/17 07:39:32;;;;;;;14.83;8.00;;;8.80;97.10;;;;;;5016437;28;20030;-78
2024/03/17 07:41:59;;;;;;;12.03;7.00;;;8.80;97.10;;;;;;5018695;28;20441;-78
2024/03/17 07:44:25;;;;;;;13.00;6.80;;;9.00;97.20;;;;;;5012283;28;20547;-77
2024/03/17 07:46:51;;;;;;;11.40;7.23;;;9.10;97.30;;;;;;5012258;28;20037;-78
2024/03/17 07:49:16;;;;;;;10.63;6.60;;;9.10;97.30;;;;;;5015651;28;20513;-78
2024/03/17 07:51:43;;;;;;;12.50;7.37;;;9.30;97.20;;;;;;5013344;28;20030;-78
2024/03/17 07:54:09;;;;;;;16.13;8.40;;;9.30;97.00;;;;;;5025545;28;20427;-78
2024/03/17 07:56:35;;;;;;;10.17;6.20;;;9.40;96.90;;;;;;5020087;28;20037;-78
2024/03/17 07:59:00;;;;;;;10.73;6.30;;;9.50;96.80;;;;;;5024718;28;20029;-78
2024/03/17 08:01:26;;;;;;;12.83;6.53;;;9.60;96.80;;;;;;5023250;28;20482;-78
2024/03/17 08:03:55;;;;;;;9.67;6.10;;;9.80;96.80;;;;;;5024761;28;20021;-78
2024/03/17 08:06:21;;;;;;;9.13;5.47;;;9.90;96.70;;;;;;5046368;28;20382;-78
2024/03/17 08:08:47;;;;;;;9.15;5.10;;;9.90;96.50;;;;;;5021119;28;20014;-78
2024/03/17 08:11:13;;;;;;;7.90;4.80;;;10.00;96.50;;;;;;5023510;28;20028;-78
2024/03/17 08:13:39;;;;;;;11.80;5.63;;;10.10;96.40;;;;;;5024433;28;20406;-78
2024/03/17 08:16:08;;;;;;;9.07;5.43;;;10.30;96.30;;;;;;5023067;28;20028;-78
2024/03/17 08:18:34;;;;;;;10.23;5.45;;;10.40;96.20;;;;;;5025581;28;20101;-78
2024/03/17 08:21:06;;;;;;;9.02;5.30;;;10.50;96.00;;;;;;5013820;28;20029;-78
2024/03/17 08:23:39;;;;;;;10.68;5.38;;;10.60;95.80;;;;;;5015117;28;20505;-79
2024/03/17 08:26:05;;;;;;;7.68;4.68;;;10.70;95.40;;;;;;5013789;28;20022;-78
2024/03/17 08:28:31;;;;;;;7.68;4.97;;;10.80;95.10;;;;;;5015396;28;20048;-78
2024/03/17 08:30:58;;;;;;;10.48;4.15;;;10.90;94.80;;;;;;5015074;28;20010;-78
2024/03/17 08:33:25;;;;;;;8.13;4.47;;;11.00;94.50;;;;;;5015159;28;20018;-78
2024/03/17 08:35:57;;;;;;;7.88;4.25;;;11.00;94.10;;;;;;5030035;28;20028;-78
2024/03/17 08:38:24;;;;;;;7.93;4.50;;;11.10;94.00;;;;;;5030279;28;20041;-79
2024/03/17 08:40:50;;;;;;;7.57;4.35;;;11.20;93.60;;;;;;5014891;28;20025;-79
2024/03/17 08:43:16;;;;;;;9.27;5.13;;;11.20;93.30;;;;;;5013368;28;20101;-78
2024/03/17 08:45:43;;;;;;;10.60;6.40;;;11.20;93.00;;;;;;5015016;28;20438;-79
2024/03/17 08:48:10;;;;;;;8.90;4.88;;;11.30;92.70;;;;;;5014670;28;20014;-79
2024/03/17 08:50:36;;;;;;;9.15;5.28;;;11.30;92.70;;;;;;5014994;28;20022;-78
2024/03/17 08:53:02;;;;;;;10.60;5.30;;;11.30;92.40;;;;;;5029664;28;20108;-79
2024/03/17 08:55:27;;;;;;;8.30;4.22;;;11.40;91.90;;;;;;5014731;28;20105;-79
2024/03/17 08:57:53;;;;;;;6.68;4.18;;;11.40;91.70;;;;;;5014576;28;20026;-79
2024/03/17 09:00:19;;;;;;;8.25;4.45;;;11.40;91.30;;;;;;5014756;28;20097;-79
2024/03/17 09:02:44;;;;;;;6.60;3.83;;;11.40;91.10;;;;;;5014641;28;20033;-78
2024/03/17 09:05:12;;;;;;;8.32;4.40;;;11.40;91.10;;;;;;5014248;28;20363;-78
2024/03/17 09:07:38;;;;;;;6.50;3.78;;;11.50;91.10;;;;;;5014366;28;20022;-78
2024/03/17 09:10:04;;;;;;;7.05;4.00;;;11.50;90.80;;;;;;5014423;28;20037;-78
2024/03/17 09:12:30;;;;;;;6.70;3.80;;;11.50;90.80;;;;;;5029565;28;20390;-78
2024/03/17 09:14:55;;;;;;;7.53;4.28;;;11.60;90.80;;;;;;5014510;28;20026;-78
2024/03/17 09:17:21;;;;;;;8.40;4.78;;;11.60;90.50;;;;;;5013900;28;20030;-78
2024/03/17 09:19:50;;;;;;;9.65;3.80;;;11.70;90.70;;;;;;5014485;28;20022;-78
2024/03/17 09:22:15;;;;;;;6.55;4.00;;;11.70;90.30;;;;;;5012651;28;20042;-79
2024/03/17 09:24:41;;;;;;;8.18;4.10;;;11.70;90.30;;;;;;5012809;28;20347;-79
2024/03/17 09:27:07;;;;;;;5.53;3.30;;;11.80;90.20;;;;;;5029425;28;20026;-79
2024/03/17 09:29:33;;;;;;;6.25;3.58;;;11.90;90.10;;;;;;5014138;28;20060;-80
2024/03/17 09:31:59;;;;;;;7.63;3.60;;;11.90;89.70;;;;;;5014560;28;20017;-79
2024/03/17 09:34:25;;;;;;;6.47;3.65;;;12.00;89.60;;;;;;5033665;28;20021;-79
2024/03/17 09:36:50;;;;;;;6.40;4.10;;;12.00;89.00;;;;;;5032195;28;20508;-80
2024/03/17 09:39:16;;;;;;;7.60;3.72;;;12.10;88.80;;;;;;5033637;28;20424;-79
2024/03/17 09:41:44;;;;;;;8.88;3.83;;;12.10;88.10;;;;;;5034431;28;20021;-79
2024/03/17 09:44:13;;;;;;;7.03;3.40;;;12.10;88.00;;;;;;5049436;28;20022;-79
2024/03/17 09:46:39;;;;;;;7.03;3.15;;;12.10;88.10;;;;;;5033898;28;20022;-79
2024/03/17 09:49:08;;;;;;;6.15;3.00;;;12.20;88.50;;;;;;5033397;28;20033;-79
2024/03/17 09:51:36;;;;;;;5.72;3.25;;;12.20;88.00;;;;;;5025443;28;20095;-79
2024/03/17 09:54:26;;;;;;;6.18;2.80;;;12.30;88.10;;;;;;5044787;28;20033;-79
2024/03/17 09:56:52;;;;;;;6.97;3.25;;;12.30;88.20;;;;;;5013402;28;20038;-79
2024/03/17 09:59:17;;;;;;;6.57;3.47;;;12.40;88.00;;;;;;5012169;28;20463;-79
2024/03/17 10:01:45;;;;;;;5.75;3.35;;;12.40;87.70;;;;;;5013342;28;20036;-80
2024/03/17 10:04:11;;;;;;;7.25;3.58;;;12.50;87.70;;;;;;5045220;28;20026;-79
2024/03/17 10:06:50;;;;;;;6.13;3.47;;;12.60;87.30;;;;;;5012007;28;20024;-78
2024/03/17 10:09:22;;;;;;;6.88;3.83;;;12.60;87.30;;;;;;5013650;28;20555;-83
2024/03/17 10:11:48;;;;;;;5.90;3.65;;;12.70;86.90;;;;;;5022945;28;20032;-82
2024/03/17 10:14:17;;;;;;;6.20;3.10;;;12.80;86.90;;;;;;5022106;28;20018;-84
2024/03/17 10:16:44;;;;;;;6.47;3.65;;;12.80;86.20;;;;;;5018448;28;20087;-84
2024/03/17 10:19:12;;;;;;;7.13;3.22;;;12.90;85.90;;;;;;5010565;28;20026;-83
2024/03/17 10:21:39;;;;;;;5.43;3.20;;;13.00;85.90;;;;;;5043273;28;20038;-82
2024/03/17 10:24:11;;;;;;;8.18;3.47;;;13.10;85.40;;;;;;5024236;28;20053;-83
2024/03/17 10:26:58;;;;;;;6.85;3.58;;;13.30;85.50;;;;;;5023171;28;20029;-84
2024/03/17 10:29:27;;;;;;;5.93;3.45;;;13.50;85.60;;;;;;5019016;28;20105;-84
2024/03/17 10:32:16;;;;;;;5.45;2.97;;;13.70;85.00;;;;;;5046857;28;20439;-83
2024/03/17 10:34:43;;;;;;;5.30;3.03;;;13.90;84.50;;;;;;5020477;28;20176;-84
2024/03/17 10:37:13;;;;;;;6.32;2.80;;;14.00;84.10;;;;;;5037282;28;20025;-84
2024/03/17 10:39:42;;;;;;;5.88;2.80;;;14.10;83.90;;;;;;5022284;28;20028;-84
2024/03/17 10:42:11;;;;;;;6.18;3.03;;;14.30;83.50;;;;;;5021154;28;20377;-83
2024/03/17 10:44:45;;;;;;;7.78;3.40;;;14.40;83.00;;;;;;5021482;28;20017;-83
2024/03/17 10:47:23;;;;;;;6.32;3.60;;;14.50;82.70;;;;;;5019914;28;20017;-84
2024/03/17 10:49:54;;;;;;;6.28;3.53;;;14.60;81.60;;;;;;5020019;28;20386;-85
2024/03/17 10:52:21;;;;;;;5.55;3.03;;;14.60;81.10;;;;;;5036987;28;20444;-83
2024/03/17 10:54:52;;;;;;;19.50;3.83;;;14.60;80.70;;;;;;5011759;28;20109;-83
2024/03/17 10:57:48;;;;;;;8.50;3.60;;;14.60;80.30;;;;;;5012908;28;20033;-82
2024/03/17 11:00:17;;;;;;;5.63;3.25;;;14.60;80.00;;;;;;5012883;28;20025;-84
2024/03/17 11:02:46;;;;;;;6.85;3.58;;;14.60;79.40;;;;;;5012883;28;20529;-85
2024/03/17 11:05:20;;;;;;;10.38;3.83;;;14.60;79.00;;;;;;5011790;28;20040;-84
2024/03/17 11:07:48;;;;;;;9.48;4.22;;;14.50;78.90;;;;;;5014925;28;20017;-85
2024/03/17 11:10:20;;;;;;;7.88;4.25;;;14.50;78.60;;;;;;5019018;28;20029;-85
2024/03/17 11:12:49;;;;;;;6.82;3.90;;;14.50;78.40;;;;;;5037374;28;20112;-85
2024/03/17 11:15:29;;;;;;;8.10;3.63;;;14.50;78.00;;;;;;5043345;28;20054;-85
2024/03/17 11:18:18;;;;;;;6.95;3.58;;;14.50;78.40;;;;;;5019915;28;20041;-85
2024/03/17 11:20:59;;;;;;;8.70;4.13;;;14.50;78.70;;;;;;5021334;28;20026;-84
2024/03/17 11:23:31;;;;;;;6.63;3.90;;;14.50;78.60;;;;;;5019897;28;20045;-84
2024/03/17 11:25:58;;;;;;;10.93;4.10;;;14.50;78.90;;;;;;5013185;28;20046;-84
2024/03/17 11:28:42;;;;;;;7.22;3.78;;;14.60;79.20;;;;;;5014495;28;20478;-88
2024/03/17 11:31:40;;;;;;;6.65;3.67;;;14.60;79.20;;;;;;5028907;28;20028;-88
2024/03/17 11:34:28;;;;;;;6.80;4.05;;;14.60;79.10;;;;;;5014183;28;20029;-87
2024/03/17 11:36:54;;;;;;;7.15;3.65;;;14.70;78.70;;;;;;5013744;28;20034;-88
2024/03/17 11:39:25;;;;;;;6.97;4.57;;;14.70;78.70;;;;;;5013938;28;20037;-88
2024/03/17 11:41:51;;;;;;;7.47;4.13;;;14.80;78.10;;;;;;5028303;28;20386;-86
2024/03/17 11:44:32;;;;;;;5.95;3.33;;;14.80;78.40;;;;;;5013834;28;20125;-89
2024/03/17 11:46:59;;;;;;;9.55;4.45;;;14.90;78.80;;;;;;5012793;28;20034;-87
2024/03/17 11:49:33;;;;;;;6.60;3.83;;;15.00;78.80;;;;;;5012752;28;20033;-87
2024/03/17 11:52:01;;;;;;;8.82;3.95;;;15.10;78.60;;;;;;5013343;28;20022;-88
2024/03/17 11:54:29;;;;;;;6.20;4.05;;;15.20;78.30;;;;;;5014226;28;20084;-86
2024/03/17 11:57:17;;;;;;;7.85;4.28;;;15.30;77.90;;;;;;5016399;28;20038;-86
2024/03/17 11:59:45;;;;;;;9.13;3.95;;;15.30;77.20;;;;;;5015957;28;20045;-87
2024/03/17 12:02:18;;;;;;;9.40;5.03;;;15.30;77.00;;;;;;5016426;28;20040;-88
2024/03/17 12:04:44;;;;;;;7.88;4.40;;;15.20;76.30;;;;;;5016487;28;20022;-86
2024/03/17 12:07:15;;;;;;;10.52;4.88;;;15.10;76.40;;;;;;5015423;28;20072;-87
2024/03/17 12:09:48;;;;;;;8.68;4.60;;;15.00;76.10;;;;;;5031390;28;20033;-88
2024/03/17 12:12:21;;;;;;;8.13;4.45;;;14.80;75.90;;;;;;5014757;28;20022;-88
2024/03/17 12:14:48;;;;;;;8.05;4.78;;;14.80;76.40;;;;;;5016040;28;20489;-87
2024/03/17 12:17:22;;;;;;;7.10;4.03;;;14.70;76.40;;;;;;5016221;28;20030;-87
2024/03/17 12:19:48;;;;;;;8.98;4.20;;;14.60;76.60;;;;;;5016117;28;20025;-86
2024/03/17 12:22:21;;;;;;;7.40;4.47;;;14.60;76.80;;;;;;5031174;28;20042;-88
2024/03/17 12:24:52;;;;;;;7.70;4.82;;;14.60;76.90;;;;;;5015837;28;20026;-85
2024/03/17 12:27:21;;;;;;;8.27;4.80;;;14.50;76.90;;;;;;5016067;28;20018;-87
2024/03/17 12:29:49;;;;;;;9.70;4.50;;;14.50;76.90;;;;;;5016302;28;20030;-88
2024/03/17 12:32:21;;;;;;;9.23;4.15;;;14.50;77.00;;;;;;5015909;28;20030;-87
2024/03/17 12:34:52;;;;;;;7.45;4.25;;;14.50;77.10;;;;;;5032749;28;20613;-84
2024/03/17 12:37:19;;;;;;;8.77;4.70;;;14.50;77.10;;;;;;5016672;28;20068;-86
2024/03/17 12:39:46;;;;;;;7.65;4.70;;;14.50;77.10;;;;;;5016086;28;20025;-87
2024/03/17 12:42:14;;;;;;;9.40;4.78;;;14.40;77.10;;;;;;5017059;28;20390;-86
2024/03/17 12:44:52;;;;;;;7.93;4.80;;;14.40;77.20;;;;;;5015647;28;20030;-87
2024/03/17 12:47:29;;;;;;;9.15;5.20;;;14.40;77.20;;;;;;5015406;28;20037;-86
2024/03/17 12:49:57;;;;;;;9.18;5.00;;;14.40;77.30;;;;;;5015551;28;20549;-87
2024/03/17 12:52:30;;;;;;;7.30;4.30;;;14.30;77.40;;;;;;5030854;28;20026;-85
2024/03/17 13:00:37;;;;;;;8.15;4.82;;;14.20;77.70;;;;;;5015753;28;20394;-87